Time;durP1;ratioP1;P1;durP2;ratioP2;P2;SDS_P1;SDS_P2;PMS_P1;PMS_P2;Temp;Humidity;BMP_temperature;BMP_pressure;BME280_temperature;BME280_humidity;BME280_pressure;Samples;Min_cycle;Max_cycle;Signal;HPM_P1;HPM_P2
2023/09/05 00:00:27;;;;;;;;;;;;;;;-146.25;100.00;52147.19;2087599;28;37316;-70
2023/09/05 00:01:30;;;;;;;;;;;;;;;-146.25;100.00;52133.00;2088015;28;33622;-71
2023/09/05 00:02:32;;;;;;;;;;;;;;;-146.25;100.00;52153.28;2080415;28;37595;-70
2023/09/05 00:03:34;;;;;;;;;;;;;;;-146.25;100.00;52137.06;2080332;28;33591;-71
2023/09/05 00:04:35;;;;;;;;;;;;;;;-146.25;100.00;52124.91;2080279;28;32831;-70
2023/09/05 00:05:37;;;;;;;;;;;;;;;-146.25;100.00;52133.00;2080461;28;35775;-71
2023/09/05 00:06:42;;;;;;;;;;;;;;;-146.25;100.00;52157.34;2080985;28;19921;-71
2023/09/05 00:07:43;;;;;;;;;;;;;;;-146.25;100.00;52141.13;2080283;28;33498;-71
2023/09/05 00:08:45;;;;;;;;;;;;;;;-146.25;100.00;52149.22;2079814;28;33513;-71
2023/09/05 00:09:49;;;;;;;;;;;;;;;-146.25;100.00;52169.50;2081148;28;19917;-72
2023/09/05 00:10:51;;;;;;;;;;;;;;;-146.25;100.00;52116.78;2079925;28;36689;-71
2023/09/05 00:11:54;;;;;;;;;;;;;;;-146.25;100.00;52177.59;2087862;28;33875;-71
2023/09/05 00:12:55;;;;;;;;;;;;;;;-146.25;100.00;52171.53;2087000;28;37228;-72
2023/09/05 00:14:00;;;;;;;;;;;;;;;-146.25;100.00;52147.19;2087879;28;37221;-72
2023/09/05 00:15:02;;;;;;;;;;;;;;;-146.25;100.00;52141.13;2087057;28;35285;-71
2023/09/05 00:16:08;;;;;;;;;;;;;;;-146.25;100.00;52122.88;2080276;28;36181;-71
2023/09/05 00:17:10;;;;;;;;;;;;;;;-146.25;100.00;52167.47;2080192;28;32052;-71
2023/09/05 00:18:12;;;;;;;;;;;;;;;-146.25;100.00;52137.06;2079749;28;39274;-71
2023/09/05 00:19:16;;;;;;;;;;;;;;;-146.25;100.00;52130.97;2080156;28;38087;-71
2023/09/05 00:20:22;;;;;;;;;;;;;;;-146.25;100.00;52112.72;2080095;28;36750;-71
2023/09/05 00:21:23;;;;;;;;;;;;;;;-146.25;100.00;52124.91;2079644;28;40692;-72
2023/09/05 00:22:25;;;;;;;;;;;;;;;-146.25;100.00;52133.00;2081158;28;19933;-71
2023/09/05 00:23:27;;;;;;;;;;;;;;;-146.25;100.00;52161.38;2079882;28;36363;-71
2023/09/05 00:24:36;;;;;;;;;;;;;;;-146.25;100.00;52149.22;2080274;28;37678;-71
2023/09/05 00:25:38;;;;;;;;;;;;;;;-146.25;100.00;52120.84;2079965;28;35165;-71
2023/09/05 00:26:39;;;;;;;;;;;;;;;-146.25;100.00;52149.22;2080114;28;40179;-71
2023/09/05 00:27:43;;;;;;;;;;;;;;;-146.25;100.00;52090.44;2079722;28;33915;-71
2023/09/05 00:28:46;;;;;;;;;;;;;;;-146.25;100.00;52151.25;2080842;28;21719;-71
2023/09/05 00:29:50;;;;;;;;;;;;;;;-146.25;100.00;52157.34;2079929;28;29179;-71
2023/09/05 00:30:52;;;;;;;;;;;;;;;-146.25;100.00;52171.53;2080598;28;27401;-71
2023/09/05 00:31:59;;;;;;;;;;;;;;;-146.25;100.00;52135.03;2080084;28;26374;-71
2023/09/05 00:33:01;;;;;;;;;;;;;;;-146.25;100.00;52108.66;2088045;28;34370;-71
2023/09/05 00:34:03;;;;;;;;;;;;;;;-146.25;100.00;52102.59;2087313;28;36369;-71
2023/09/05 00:35:05;;;;;;;;;;;;;;;-146.25;100.00;52163.41;2080412;28;35443;-71
2023/09/05 00:36:12;;;;;;;;;;;;;;;-146.25;100.00;52157.34;2087467;28;31367;-71
2023/09/05 00:37:21;;;;;;;;;;;;;;;-146.25;100.00;52128.94;2079515;28;31614;-71
2023/09/05 00:38:23;;;;;;;;;;;;;;;-146.25;100.00;52141.13;2080425;28;30793;-72
2023/09/05 00:39:25;;;;;;;;;;;;;;;-146.25;100.00;52141.13;2080362;28;20858;-71
2023/09/05 00:40:28;;;;;;;;;;;;;;;-146.25;100.00;52118.81;2079450;28;31560;-71
2023/09/05 00:41:29;;;;;;;;;;;;;;;-146.25;100.00;52124.91;2080111;28;28193;-72
2023/09/05 00:42:31;;;;;;;;;;;;;;;-146.25;100.00;52130.97;2087323;28;27560;-70
2023/09/05 00:43:32;;;;;;;;;;;;;;;-146.25;100.00;52189.78;2087989;28;32502;-71
2023/09/05 00:44:35;;;;;;;;;;;;;;;-146.25;100.00;52169.50;2079968;28;27489;-71
2023/09/05 00:45:45;;;;;;;;;;;;;;;-146.25;100.00;52177.59;2080908;28;19921;-71
2023/09/05 00:46:47;;;;;;;;;;;;;;;-146.25;100.00;52149.22;2088187;28;20886;-71
2023/09/05 00:47:49;;;;;;;;;;;;;;;-146.25;100.00;52185.72;2087812;28;26911;-72
2023/09/05 00:48:52;;;;;;;;;;;;;;;-146.25;100.00;52112.72;2087860;28;29733;-71
2023/09/05 00:49:54;;;;;;;;;;;;;;;-146.25;100.00;52161.38;2080785;28;19925;-71
2023/09/05 00:50:57;;;;;;;;;;;;;;;-146.25;100.00;52124.91;2080478;28;19926;-71
2023/09/05 00:52:01;;;;;;;;;;;;;;;-146.25;100.00;52165.44;2080792;28;26106;-71
2023/09/05 00:53:02;;;;;;;;;;;;;;;-146.25;100.00;52118.81;2080133;28;30540;-71
2023/09/05 00:54:06;;;;;;;;;;;;;;;-146.25;100.00;52155.31;2079195;28;36998;-71
2023/09/05 00:55:08;;;;;;;;;;;;;;;-146.25;100.00;52165.44;2079808;28;20810;-71
2023/09/05 00:56:10;;;;;;;;;;;;;;;-146.25;100.00;52094.47;2080385;28;23726;-72
2023/09/05 00:57:15;;;;;;;;;;;;;;;-146.25;100.00;52133.00;2079511;28;23070;-71
2023/09/05 00:58:17;;;;;;;;;;;;;;;-146.25;100.00;52130.97;2080407;28;20810;-70
2023/09/05 00:59:21;;;;;;;;;;;;;;;-146.25;100.00;52135.03;2087537;28;31413;-72
2023/09/05 01:00:24;;;;;;;;;;;;;;;-146.25;100.00;52169.50;2080000;28;31135;-70
2023/09/05 01:01:25;;;;;;;;;;;;;;;-146.25;100.00;52104.63;2079938;28;29212;-71
2023/09/05 01:02:27;;;;;;;;;;;;;;;-146.25;100.00;52153.28;2080398;28;26195;-70
2023/09/05 01:03:28;;;;;;;;;;;;;;;-146.25;100.00;52149.22;2087751;28;28304;-71
2023/09/05 01:04:33;;;;;;;;;;;;;;;-146.25;100.00;52155.31;2087606;28;31940;-71
2023/09/05 01:05:37;;;;;;;;;;;;;;;-146.25;100.00;52118.81;2079938;28;19921;-70
2023/09/05 01:06:47;;;;;;;;;;;;;;;-146.25;100.00;52153.28;2079580;28;31285;-70
2023/09/05 01:08:07;;;;;;;;;;;;;;;-146.25;100.00;52151.25;2079968;28;34294;-71
2023/09/05 01:09:39;;;;;;;;;;;;;;;-146.25;100.00;52149.22;2087071;28;33592;-71
2023/09/05 01:10:58;;;;;;;;;;;;;;;-146.25;100.00;52149.22;2087715;28;31540;-71
2023/09/05 01:12:00;;;;;;;;;;;;;;;-146.25;100.00;52126.91;2086186;28;20078;-71
2023/09/05 01:13:01;;;;;;;;;;;;;;;-146.25;100.00;52137.06;2080434;28;20850;-71
2023/09/05 01:14:03;;;;;;;;;;;;;;;-146.25;100.00;52141.13;2087539;28;27237;-71
2023/09/05 01:15:07;;;;;;;;;;;;;;;-146.25;100.00;52128.94;2088554;28;20924;-71
2023/09/05 01:16:09;;;;;;;;;;;;;;;-146.25;100.00;52139.09;2080123;28;26450;-71
2023/09/05 01:17:11;;;;;;;;;;;;;;;-146.25;100.00;52153.28;2080803;28;19921;-69
2023/09/05 01:18:13;;;;;;;;;;;;;;;-146.25;100.00;52122.88;2080203;28;25288;-72
2023/09/05 01:19:17;;;;;;;;;;;;;;;-146.25;100.00;52124.91;2079916;28;31496;-70
2023/09/05 01:20:21;;;;;;;;;;;;;;;-146.25;100.00;52159.34;2080580;28;19925;-70
2023/09/05 01:21:39;;;;;;;;;;;;;;;-146.25;100.00;52155.31;2079118;28;26600;-69
2023/09/05 01:23:00;;;;;;;;;;;;;;;-146.25;100.00;52151.25;2074854;28;19946;-70
2023/09/05 01:24:16;;;;;;;;;;;;;;;-146.25;100.00;52114.75;2079416;28;23565;-70
2023/09/05 01:25:19;;;;;;;;;;;;;;;-146.25;100.00;52161.38;2079638;28;20339;-70
2023/09/05 01:26:21;;;;;;;;;;;;;;;-146.25;100.00;52153.28;2079179;28;30117;-70
2023/09/05 01:27:25;;;;;;;;;;;;;;;-146.25;100.00;52167.47;2080424;28;19976;-65
2023/09/05 01:28:28;;;;;;;;;;;;;;;-146.25;100.00;52137.06;2080489;28;20715;-70
2023/09/05 01:29:35;;;;;;;;;;;;;;;-146.25;100.00;52187.75;2080177;28;27709;-71
2023/09/05 01:30:40;;;;;;;;;;;;;;;-146.25;100.00;52157.34;2081668;28;19928;-71
2023/09/05 01:31:43;;;;;;;;;;;;;;;-146.25;100.00;52135.03;2088968;28;30818;-70
2023/09/05 01:32:46;;;;;;;;;;;;;;;-146.25;100.00;52145.16;2088593;28;30121;-70
2023/09/05 01:33:47;;;;;;;;;;;;;;;-146.25;100.00;52137.06;2081643;28;27925;-70
2023/09/05 01:34:49;;;;;;;;;;;;;;;-146.25;100.00;52141.13;2081424;28;25501;-71
2023/09/05 01:35:50;;;;;;;;;;;;;;;-146.25;100.00;52149.22;2081598;28;21007;-71
2023/09/05 01:36:52;;;;;;;;;;;;;;;-146.25;100.00;52175.56;2081362;28;31051;-70
2023/09/05 01:37:54;;;;;;;;;;;;;;;-146.25;100.00;52126.91;2082204;28;22578;-71
2023/09/05 01:38:58;;;;;;;;;;;;;;;-146.25;100.00;52106.66;2081491;28;27053;-71
2023/09/05 01:40:00;;;;;;;;;;;;;;;-146.25;100.00;52149.22;2080814;28;34334;-71
2023/09/05 01:41:02;;;;;;;;;;;;;;;-146.25;100.00;52157.34;2081255;28;19921;-71
2023/09/05 01:42:04;;;;;;;;;;;;;;;-146.25;100.00;52167.47;2089040;28;21919;-70
2023/09/05 01:43:06;;;;;;;;;;;;;;;-146.25;100.00;52133.00;2088457;28;35283;-71
2023/09/05 01:44:08;;;;;;;;;;;;;;;-146.25;100.00;52159.34;2080796;28;28212;-71
2023/09/05 01:45:12;;;;;;;;;;;;;;;-146.25;100.00;52118.81;2080785;28;24323;-70
2023/09/05 01:46:13;;;;;;;;;;;;;;;-146.25;100.00;52135.03;2081476;28;30679;-70
2023/09/05 01:47:15;;;;;;;;;;;;;;;-146.25;100.00;52112.72;2081432;28;28875;-70
2023/09/05 01:48:17;;;;;;;;;;;;;;;-146.25;100.00;52114.75;2081497;28;29337;-70
2023/09/05 01:49:21;;;;;;;;;;;;;;;-146.25;100.00;52143.13;2081149;28;28189;-71
2023/09/05 01:50:23;;;;;;;;;;;;;;;-146.25;100.00;52185.72;2081245;28;28794;-71
2023/09/05 01:51:26;;;;;;;;;;;;;;;-146.25;100.00;52179.63;2081637;28;20067;-71
2023/09/05 01:52:28;;;;;;;;;;;;;;;-146.25;100.00;52189.78;2080696;28;27462;-70
2023/09/05 01:53:30;;;;;;;;;;;;;;;-146.25;100.00;52116.78;2080891;28;19914;-71
2023/09/05 01:54:31;;;;;;;;;;;;;;;-146.25;100.00;52149.22;2081126;28;19922;-69
2023/09/05 01:55:33;;;;;;;;;;;;;;;-146.25;100.00;52177.59;2081055;28;19936;-70
2023/09/05 01:56:35;;;;;;;;;;;;;;;-146.25;100.00;52157.34;2080701;28;24222;-70
2023/09/05 01:57:36;;;;;;;;;;;;;;;-146.25;100.00;52128.94;2080265;28;27102;-70
2023/09/05 01:58:40;;;;;;;;;;;;;;;-146.25;100.00;52145.16;2080564;28;19975;-70
2023/09/05 01:59:42;;;;;;;;;;;;;;;-146.25;100.00;52177.59;2080853;28;19999;-70
2023/09/05 02:00:43;;;;;;;;;;;;;;;-146.25;100.00;52179.63;2084895;28;22117;-71
2023/09/05 02:01:46;;;;;;;;;;;;;;;-146.25;100.00;52153.28;2072284;28;23335;-71
2023/09/05 02:02:47;;;;;;;;;;;;;;;-146.25;100.00;52153.28;2073047;28;19924;-71
2023/09/05 02:03:49;;;;;;;;;;;;;;;-146.25;100.00;52141.13;2081213;28;19932;-70
2023/09/05 02:04:51;;;;;;;;;;;;;;;-146.25;100.00;52126.91;2081307;28;29797;-68
2023/09/05 02:05:53;;;;;;;;;;;;;;;-146.25;100.00;52094.47;2097423;28;19931;-70
2023/09/05 02:06:54;;;;;;;;;;;;;;;-146.25;100.00;52169.50;2097670;28;20877;-70
2023/09/05 02:07:56;;;;;;;;;;;;;;;-146.25;100.00;52128.94;2081750;28;19929;-70
2023/09/05 02:08:58;;;;;;;;;;;;;;;-146.25;100.00;52120.84;2081048;28;20855;-71
2023/09/05 02:09:59;;;;;;;;;;;;;;;-146.25;100.00;52137.06;2080635;28;20050;-70
2023/09/05 02:11:01;;;;;;;;;;;;;;;-146.25;100.00;52128.94;2081520;28;25933;-70
2023/09/05 02:12:03;;;;;;;;;;;;;;;-146.25;100.00;52147.19;2079785;28;23599;-70
2023/09/05 02:13:05;;;;;;;;;;;;;;;-146.25;100.00;52153.28;2080169;28;19987;-70
2023/09/05 02:14:07;;;;;;;;;;;;;;;-146.25;100.00;52149.22;2080110;28;24466;-70
2023/09/05 02:15:09;;;;;;;;;;;;;;;-146.25;100.00;52173.56;2080360;28;32535;-70
2023/09/05 02:16:18;;;;;;;;;;;;;;;-146.25;100.00;52171.53;2088600;28;28515;-69
2023/09/05 02:17:20;;;;;;;;;;;;;;;-146.25;100.00;52149.22;2080883;28;19929;-70
2023/09/05 02:18:22;;;;;;;;;;;;;;;-146.25;100.00;52173.56;2080584;28;19926;-71
2023/09/05 02:19:26;;;;;;;;;;;;;;;-146.25;100.00;52126.91;2080905;28;19922;-71
2023/09/05 02:20:28;;;;;;;;;;;;;;;-146.25;100.00;52155.31;2080470;28;27916;-70
2023/09/05 02:21:30;;;;;;;;;;;;;;;-146.25;100.00;52161.38;2080223;28;28068;-71
2023/09/05 02:22:34;;;;;;;;;;;;;;;-146.25;100.00;52149.22;2081191;28;19928;-71
2023/09/05 02:23:38;;;;;;;;;;;;;;;-146.25;100.00;52141.13;2081209;28;20051;-70
2023/09/05 02:24:41;;;;;;;;;;;;;;;-146.25;100.00;52141.13;2080994;28;33255;-71
2023/09/05 02:25:42;;;;;;;;;;;;;;;-146.25;100.00;52141.13;2080975;28;35408;-71
2023/09/05 02:26:45;;;;;;;;;;;;;;;-146.25;100.00;52120.84;2088355;28;19932;-70
2023/09/05 02:27:47;;;;;;;;;;;;;;;-146.25;100.00;52177.59;2080270;28;28758;-70
2023/09/05 02:28:51;;;;;;;;;;;;;;;-146.25;100.00;52143.13;2080586;28;19925;-71
2023/09/05 02:29:58;;;;;;;;;;;;;;;-146.25;100.00;52114.75;2081587;28;21065;-70
2023/09/05 02:31:06;;;;;;;;;;;;;;;-146.25;100.00;52149.22;2080952;28;27516;-70
2023/09/05 02:32:10;;;;;;;;;;;;;;;-146.25;100.00;52133.00;2081393;28;28744;-70
2023/09/05 02:33:12;;;;;;;;;;;;;;;-146.25;100.00;52149.22;2081414;28;19921;-70
2023/09/05 02:34:14;;;;;;;;;;;;;;;-146.25;100.00;52145.16;2080050;28;33071;-70
2023/09/05 02:35:16;;;;;;;;;;;;;;;-146.25;100.00;52157.34;2080612;28;19921;-70
2023/09/05 02:36:18;;;;;;;;;;;;;;;-146.25;100.00;52163.41;2080242;28;28895;-71
2023/09/05 02:37:20;;;;;;;;;;;;;;;-146.25;100.00;52185.72;2080169;28;20463;-71
2023/09/05 02:38:21;;;;;;;;;;;;;;;-146.25;100.00;52165.44;2081262;28;27725;-71
2023/09/05 02:39:23;;;;;;;;;;;;;;;-146.25;100.00;52179.63;2080524;28;31861;-71
2023/09/05 02:40:25;;;;;;;;;;;;;;;-146.25;100.00;52161.38;2088628;28;34129;-71
2023/09/05 02:41:27;;;;;;;;;;;;;;;-146.25;100.00;52130.97;2079674;28;25743;-71
2023/09/05 02:42:29;;;;;;;;;;;;;;;-146.25;100.00;52177.59;2080707;28;28420;-71
2023/09/05 02:43:32;;;;;;;;;;;;;;;-146.25;100.00;52165.44;2088124;28;20837;-71
2023/09/05 02:44:33;;;;;;;;;;;;;;;-146.25;100.00;52175.56;2081087;28;30392;-71
2023/09/05 02:45:35;;;;;;;;;;;;;;;-146.25;100.00;52139.09;2079500;28;31427;-71
2023/09/05 02:46:40;;;;;;;;;;;;;;;-146.25;100.00;52149.22;2081128;28;19921;-71
2023/09/05 02:47:42;;;;;;;;;;;;;;;-146.25;100.00;52149.22;2088413;28;27654;-71
2023/09/05 02:48:45;;;;;;;;;;;;;;;-146.25;100.00;52151.25;2080786;28;20060;-71
2023/09/05 02:49:47;;;;;;;;;;;;;;;-146.25;100.00;52159.34;2080387;28;26126;-71
2023/09/05 02:51:00;;;;;;;;;;;;;;;-146.25;100.00;52108.66;2081335;28;19921;-71
2023/09/05 02:52:05;;;;;;;;;;;;;;;-146.25;100.00;52149.22;2081463;28;20081;-71
2023/09/05 02:53:08;;;;;;;;;;;;;;;-146.25;100.00;52159.34;2081526;28;19991;-72
2023/09/05 02:54:10;;;;;;;;;;;;;;;-146.25;100.00;52171.53;2080132;28;26058;-72
2023/09/05 02:55:12;;;;;;;;;;;;;;;-146.25;100.00;52145.16;2080221;28;37633;-71
2023/09/05 02:56:16;;;;;;;;;;;;;;;-146.25;100.00;52159.34;2088658;28;19952;-71
2023/09/05 02:57:19;;;;;;;;;;;;;;;-146.25;100.00;52165.44;2080510;28;19924;-71
2023/09/05 02:58:21;;;;;;;;;;;;;;;-146.25;100.00;52149.22;2080066;28;20809;-71
2023/09/05 02:59:25;;;;;;;;;;;;;;;-146.25;100.00;52185.72;2088638;28;30020;-71
2023/09/05 03:00:27;;;;;;;;;;;;;;;-146.25;100.00;52153.28;2080646;28;31212;-71
2023/09/05 03:01:28;;;;;;;;;;;;;;;-146.25;100.00;52143.13;2080999;28;31345;-71
2023/09/05 03:02:30;;;;;;;;;;;;;;;-146.25;100.00;52143.13;2088134;28;27423;-72
2023/09/05 03:03:32;;;;;;;;;;;;;;;-146.25;100.00;52155.31;2088686;28;32395;-71
2023/09/05 03:04:34;;;;;;;;;;;;;;;-146.25;100.00;52165.44;2088358;28;19987;-71
2023/09/05 03:05:35;;;;;;;;;;;;;;;-146.25;100.00;52149.22;2080731;28;19952;-71
2023/09/05 03:06:37;;;;;;;;;;;;;;;-146.25;100.00;52141.13;2080324;28;25237;-71
2023/09/05 03:07:40;;;;;;;;;;;;;;;-146.25;100.00;52173.56;2081026;28;19992;-71
2023/09/05 03:08:45;;;;;;;;;;;;;;;-146.25;100.00;52165.44;2072426;28;19926;-71
2023/09/05 03:09:51;;;;;;;;;;;;;;;-146.25;100.00;52187.75;2081114;28;20059;-71
2023/09/05 03:10:54;;;;;;;;;;;;;;;-146.25;100.00;52145.16;2080298;28;20881;-71
2023/09/05 03:11:56;;;;;;;;;;;;;;;-146.25;100.00;52159.34;2079803;28;27818;-71
2023/09/05 03:12:58;;;;;;;;;;;;;;;-146.25;100.00;52137.06;2080211;28;19928;-71
2023/09/05 03:14:01;;;;;;;;;;;;;;;-146.25;100.00;52181.66;2080889;28;20091;-71
2023/09/05 03:15:03;;;;;;;;;;;;;;;-146.25;100.00;52153.28;2088349;28;20785;-71
2023/09/05 03:16:05;;;;;;;;;;;;;;;-146.25;100.00;52153.28;2080547;28;20940;-71
2023/09/05 03:17:09;;;;;;;;;;;;;;;-146.25;100.00;52153.28;2080392;28;19921;-71
2023/09/05 03:18:12;;;;;;;;;;;;;;;-146.25;100.00;52145.16;2081002;28;19929;-70
2023/09/05 03:19:14;;;;;;;;;;;;;;;-146.25;100.00;52139.09;2087883;28;30451;-71
2023/09/05 03:20:15;;;;;;;;;;;;;;;-146.25;100.00;52165.44;2080279;28;21502;-71
2023/09/05 03:21:18;;;;;;;;;;;;;;;-146.25;100.00;52193.81;2080301;28;22013;-71
2023/09/05 03:22:22;;;;;;;;;;;;;;;-146.25;100.00;52185.72;2080633;28;19984;-72
2023/09/05 03:23:23;;;;;;;;;;;;;;;-146.25;100.00;52157.34;2080302;28;20790;-71
2023/09/05 03:24:26;;;;;;;;;;;;;;;-146.25;100.00;52141.13;2087863;28;31468;-72
2023/09/05 03:25:27;;;;;;;;;;;;;;;-146.25;100.00;52165.44;2079898;28;29473;-71
2023/09/05 03:26:34;;;;;;;;;;;;;;;-146.25;100.00;52165.44;2080273;28;28227;-71
2023/09/05 03:27:35;;;;;;;;;;;;;;;-146.25;100.00;52171.53;2080719;28;25667;-71
2023/09/05 03:28:42;;;;;;;;;;;;;;;-146.25;100.00;52147.19;2081206;28;20065;-71
2023/09/05 03:29:47;;;;;;;;;;;;;;;-146.25;100.00;52147.19;2081828;28;19933;-72
2023/09/05 03:30:49;;;;;;;;;;;;;;;-146.25;100.00;52139.09;2079989;28;26431;-71
2023/09/05 03:31:52;;;;;;;;;;;;;;;-146.25;100.00;52155.31;2080456;28;20067;-70
2023/09/05 03:32:54;;;;;;;;;;;;;;;-146.25;100.00;52155.31;2080193;28;19937;-71
2023/09/05 03:33:56;;;;;;;;;;;;;;;-146.25;100.00;52149.22;2080129;28;20997;-71
2023/09/05 03:34:58;;;;;;;;;;;;;;;-146.25;100.00;52159.34;2088572;28;22383;-70
2023/09/05 03:36:04;;;;;;;;;;;;;;;-146.25;100.00;52128.94;2080434;28;19925;-71
2023/09/05 03:37:09;;;;;;;;;;;;;;;-146.25;100.00;52118.81;2080717;28;19925;-70
2023/09/05 03:38:11;;;;;;;;;;;;;;;-146.25;100.00;52149.22;2088302;28;19917;-72
2023/09/05 03:39:13;;;;;;;;;;;;;;;-146.25;100.00;52163.41;2088458;28;19972;-70
2023/09/05 03:40:15;;;;;;;;;;;;;;;-146.25;100.00;52179.63;2088433;28;19925;-72
2023/09/05 03:41:16;;;;;;;;;;;;;;;-146.25;100.00;52149.22;2087788;28;27178;-71
2023/09/05 03:42:18;;;;;;;;;;;;;;;-146.25;100.00;52157.34;2088263;28;29271;-71
2023/09/05 03:43:20;;;;;;;;;;;;;;;-146.25;100.00;52120.84;2087666;28;29136;-70
2023/09/05 03:44:21;;;;;;;;;;;;;;;-146.25;100.00;52151.25;2080401;28;30682;-72
2023/09/05 03:45:23;;;;;;;;;;;;;;;-146.25;100.00;52157.34;2080740;28;26987;-72
2023/09/05 03:46:25;;;;;;;;;;;;;;;-146.25;100.00;52135.03;2080101;28;37608;-71
2023/09/05 03:47:29;;;;;;;;;;;;;;;-146.25;100.00;52195.84;2081086;28;19921;-71
2023/09/05 03:48:32;;;;;;;;;;;;;;;-146.25;100.00;52169.50;2080320;28;19913;-70
2023/09/05 03:49:34;;;;;;;;;;;;;;;-146.25;100.00;52171.53;2080072;28;19925;-71
2023/09/05 03:50:36;;;;;;;;;;;;;;;-146.25;100.00;52159.34;2087930;28;29737;-71
2023/09/05 03:51:37;;;;;;;;;;;;;;;-146.25;100.00;52161.38;2080988;28;27315;-71
2023/09/05 03:52:39;;;;;;;;;;;;;;;-146.25;100.00;52147.19;2087086;28;33618;-72
2023/09/05 03:53:42;;;;;;;;;;;;;;;-146.25;100.00;52143.13;2087577;28;27265;-71
2023/09/05 03:54:44;;;;;;;;;;;;;;;-146.25;100.00;52159.34;2088182;28;22774;-72
2023/09/05 03:55:46;;;;;;;;;;;;;;;-146.25;100.00;52155.31;2079887;28;21427;-71
2023/09/05 03:56:48;;;;;;;;;;;;;;;-146.25;100.00;52175.56;2079817;28;32864;-71
2023/09/05 03:57:50;;;;;;;;;;;;;;;-146.25;100.00;52153.28;2080136;28;19952;-70
2023/09/05 03:58:51;;;;;;;;;;;;;;;-146.25;100.00;52153.28;2080457;28;19928;-71
2023/09/05 03:59:53;;;;;;;;;;;;;;;-146.25;100.00;52157.34;2088072;28;27755;-70
2023/09/05 04:01:01;;;;;;;;;;;;;;;-146.25;100.00;52177.59;2087944;28;21437;-70
2023/09/05 04:02:03;;;;;;;;;;;;;;;-146.25;100.00;52126.91;2104879;22;26221;-63
2023/09/05 04:03:05;;;;;;;;;;;;;;;-146.25;100.00;52165.44;2100591;28;19920;-63
2023/09/05 04:04:08;;;;;;;;;;;;;;;-146.25;100.00;52181.66;2097287;28;26952;-63
2023/09/05 04:05:10;;;;;;;;;;;;;;;-146.25;100.00;52137.06;2096587;28;19948;-62
2023/09/05 04:06:12;;;;;;;;;;;;;;;-146.25;100.00;52133.00;2096917;28;20817;-62
2023/09/05 04:07:19;;;;;;;;;;;;;;;-146.25;100.00;52161.38;2096461;28;19987;-62
2023/09/05 04:08:21;;;;;;;;;;;;;;;-146.25;100.00;52163.41;2089177;28;19979;-63
2023/09/05 04:09:22;;;;;;;;;;;;;;;-146.25;100.00;52120.84;2092971;28;27213;-63
2023/09/05 04:10:27;;;;;;;;;;;;;;;-146.25;100.00;52173.56;2096419;28;19920;-63
2023/09/05 04:11:28;;;;;;;;;;;;;;;-146.25;100.00;52141.13;2097255;28;24491;-62
2023/09/05 04:12:32;;;;;;;;;;;;;;;-146.25;100.00;52151.25;2096850;28;20758;-62
2023/09/05 04:13:34;;;;;;;;;;;;;;;-146.25;100.00;52197.88;2088250;28;20805;-62
2023/09/05 04:14:36;;;;;;;;;;;;;;;-146.25;100.00;52163.41;2088434;28;23554;-62
2023/09/05 04:15:37;;;;;;;;;;;;;;;-146.25;100.00;52155.31;2096474;28;28333;-64
2023/09/05 04:16:41;;;;;;;;;;;;;;;-146.25;100.00;52124.91;2096986;28;29897;-64
2023/09/05 04:17:43;;;;;;;;;;;;;;;-146.25;100.00;52179.63;2096800;28;20444;-63
2023/09/05 04:18:45;;;;;;;;;;;;;;;-146.25;100.00;52165.44;2088069;28;25707;-64
2023/09/05 04:19:51;;;;;;;;;;;;;;;-146.25;100.00;52171.53;2096282;28;28681;-64
2023/09/05 04:20:57;;;;;;;;;;;;;;;-146.25;100.00;52165.44;2097253;28;19951;-63
2023/09/05 04:21:59;;;;;;;;;;;;;;;-146.25;100.00;52159.34;2097328;28;19925;-63
2023/09/05 04:23:01;;;;;;;;;;;;;;;-146.25;100.00;52161.38;2096447;28;29453;-64
2023/09/05 04:24:03;;;;;;;;;;;;;;;-146.25;100.00;52169.50;2097499;28;19929;-63
2023/09/05 04:25:06;;;;;;;;;;;;;;;-146.25;100.00;52173.56;2096834;28;20351;-64
2023/09/05 04:26:10;;;;;;;;;;;;;;;-146.25;100.00;52149.22;2096332;28;25160;-63
2023/09/05 04:27:12;;;;;;;;;;;;;;;-146.25;100.00;52169.50;2087837;28;32914;-65
2023/09/05 04:28:13;;;;;;;;;;;;;;;-146.25;100.00;52161.38;2088492;28;20548;-63
2023/09/05 04:29:17;;;;;;;;;;;;;;;-146.25;100.00;52199.91;2096087;28;22158;-64
2023/09/05 04:30:19;;;;;;;;;;;;;;;-146.25;100.00;52157.34;2096744;28;20041;-63
2023/09/05 04:31:21;;;;;;;;;;;;;;;-146.25;100.00;52124.91;2087390;28;34448;-64
2023/09/05 04:32:31;;;;;;;;;;;;;;;-146.25;100.00;52167.47;2088251;28;19921;-64
2023/09/05 04:33:37;;;;;;;;;;;;;;;-146.25;100.00;52161.38;2092294;28;19921;-64
2023/09/05 04:34:39;;;;;;;;;;;;;;;-146.25;100.00;52126.91;2088993;28;19975;-64
2023/09/05 04:35:41;;;;;;;;;;;;;;;-146.25;100.00;52161.38;2087815;28;19928;-64
2023/09/05 04:36:43;;;;;;;;;;;;;;;-146.25;100.00;52177.59;2097167;28;25473;-63
2023/09/05 04:37:47;;;;;;;;;;;;;;;-146.25;100.00;52161.38;2096030;28;19924;-63
2023/09/05 04:38:50;;;;;;;;;;;;;;;-146.25;100.00;52137.06;2096381;28;31164;-64
2023/09/05 04:39:52;;;;;;;;;;;;;;;-146.25;100.00;52161.38;2103949;28;33756;-64
2023/09/05 04:40:54;;;;;;;;;;;;;;;-146.25;100.00;52120.84;2096643;28;19983;-64
2023/09/05 04:41:56;;;;;;;;;;;;;;;-146.25;100.00;52153.28;2095352;28;36034;-62
2023/09/05 04:42:57;;;;;;;;;;;;;;;-146.25;100.00;52161.38;2096906;28;33097;-64
2023/09/05 04:43:59;;;;;;;;;;;;;;;-146.25;100.00;52149.22;2096669;28;35073;-64
2023/09/05 04:45:00;;;;;;;;;;;;;;;-146.25;100.00;52173.56;2096748;28;36959;-63
2023/09/05 04:46:09;;;;;;;;;;;;;;;-146.25;100.00;52185.72;2097328;28;19925;-64
2023/09/05 04:47:27;;;;;;;;;;;;;;;-146.25;100.00;52139.09;2095811;28;41773;-64
2023/09/05 04:48:29;;;;;;;;;;;;;;;-146.25;100.00;52185.72;2095918;28;37713;-62
2023/09/05 04:49:30;;;;;;;;;;;;;;;-146.25;100.00;52157.34;2096654;28;33527;-63
2023/09/05 04:50:32;;;;;;;;;;;;;;;-146.25;100.00;52167.47;2096315;28;37853;-64
2023/09/05 04:51:34;;;;;;;;;;;;;;;-146.25;100.00;52177.59;2096581;28;38006;-63
2023/09/05 04:52:36;;;;;;;;;;;;;;;-146.25;100.00;52163.41;2096101;28;32149;-64
2023/09/05 04:53:37;;;;;;;;;;;;;;;-146.25;100.00;52167.47;2096464;28;35433;-64
2023/09/05 04:54:39;;;;;;;;;;;;;;;-146.25;100.00;52163.41;2096537;28;32690;-64
2023/09/05 04:55:43;;;;;;;;;;;;;;;-146.25;100.00;52153.28;2096311;28;36855;-63
2023/09/05 04:56:46;;;;;;;;;;;;;;;-146.25;100.00;52130.97;2096113;28;34037;-64
2023/09/05 04:57:48;;;;;;;;;;;;;;;-146.25;100.00;52171.53;2096948;28;32425;-64
2023/09/05 04:58:49;;;;;;;;;;;;;;;-146.25;100.00;52167.47;2096616;28;38297;-64
2023/09/05 04:59:57;;;;;;;;;;;;;;;-146.25;100.00;52133.00;2096135;28;37740;-64
2023/09/05 05:01:03;;;;;;;;;;;;;;;-146.25;100.00;52171.53;2096394;28;37615;-64
2023/09/05 05:02:09;;;;;;;;;;;;;;;-146.25;100.00;52173.56;2096977;28;19921;-64
2023/09/05 05:03:11;;;;;;;;;;;;;;;-146.25;100.00;52183.69;2096125;28;37825;-63
2023/09/05 05:04:13;;;;;;;;;;;;;;;-146.25;100.00;52181.66;2097798;28;20028;-64
2023/09/05 05:05:17;;;;;;;;;;;;;;;-146.25;100.00;52193.81;2097694;28;37353;-64
2023/09/05 05:06:18;;;;;;;;;;;;;;;-146.25;100.00;52173.56;2098273;28;31504;-63
2023/09/05 05:07:20;;;;;;;;;;;;;;;-146.25;100.00;52151.25;2097451;28;39273;-63
2023/09/05 05:08:22;;;;;;;;;;;;;;;-146.25;100.00;52161.38;2098788;28;19921;-63
2023/09/05 05:09:24;;;;;;;;;;;;;;;-146.25;100.00;52169.50;2097729;28;36763;-64
2023/09/05 05:10:26;;;;;;;;;;;;;;;-146.25;100.00;52208.03;2097585;28;34305;-64
2023/09/05 05:11:27;;;;;;;;;;;;;;;-146.25;100.00;52173.56;2097664;28;35098;-64
2023/09/05 05:12:29;;;;;;;;;;;;;;;-146.25;100.00;52153.28;2097984;28;38355;-63
2023/09/05 05:13:31;;;;;;;;;;;;;;;-146.25;100.00;52173.56;2097924;28;36051;-64
2023/09/05 05:14:32;;;;;;;;;;;;;;;-146.25;100.00;52189.78;2098556;28;26842;-64
2023/09/05 05:15:34;;;;;;;;;;;;;;;-146.25;100.00;52181.66;2097601;28;38099;-65
2023/09/05 05:16:38;;;;;;;;;;;;;;;-146.25;100.00;52206.00;2097981;28;34158;-64